createdAt,value
2017-09-16T00:02:16.386Z,15.53
2017-09-16T00:04:42.636Z,16.27
2017-09-16T00:07:08.923Z,14.37
2017-09-16T00:09:35.881Z,13.67
2017-09-16T00:12:02.850Z,12.57
2017-09-16T00:14:29.118Z,14.07
2017-09-16T00:16:55.363Z,13.50
2017-09-16T00:19:21.586Z,14.87
2017-09-16T00:21:47.921Z,13.87
2017-09-16T00:24:14.330Z,13.63
2017-09-16T00:26:40.586Z,14.03
2017-09-16T00:29:06.850Z,14.10
2017-09-16T00:31:33.819Z,13.07
2017-09-16T00:34:00.051Z,14.93
2017-09-16T00:36:26.330Z,15.17
2017-09-16T00:38:52.562Z,15.30
2017-09-16T00:41:18.794Z,15.60
2017-09-16T00:43:45.068Z,15.43
2017-09-16T00:46:12.046Z,14.70
2017-09-16T00:48:38.286Z,14.40
2017-09-16T00:51:04.550Z,15.10
2017-09-16T00:53:31.541Z,15.17
2017-09-16T00:55:58.572Z,14.40
2017-09-16T00:58:24.820Z,14.47
2017-09-16T01:00:51.059Z,16.00
2017-09-16T01:03:17.282Z,14.63
2017-09-16T01:05:43.529Z,16.03
2017-09-16T01:08:09.758Z,16.50
2017-09-16T01:10:35.993Z,16.37
2017-09-16T01:13:02.245Z,17.10
2017-09-16T01:15:28.484Z,14.60
2017-09-16T01:17:55.492Z,15.07
2017-09-16T01:20:21.742Z,15.37
2017-09-16T01:22:48.066Z,14.93
2017-09-16T01:25:14.498Z,15.10
2017-09-16T01:27:40.766Z,14.03
2017-09-16T01:30:07.035Z,15.67
2017-09-16T01:32:34.006Z,15.70
2017-09-16T01:35:00.248Z,15.43
2017-09-16T01:37:26.461Z,15.07
2017-09-16T01:39:52.690Z,17.33
2017-09-16T01:42:18.930Z,15.83
2017-09-16T01:44:45.209Z,15.60
2017-09-16T01:47:11.454Z,15.40
2017-09-16T01:49:38.744Z,15.97
2017-09-16T01:52:04.974Z,16.20
2017-09-16T01:54:31.197Z,16.00
2017-09-16T01:56:58.245Z,16.20
2017-09-16T01:59:24.469Z,16.50
2017-09-16T02:01:50.703Z,16.33
2017-09-16T02:04:16.956Z,16.70
2017-09-16T02:06:43.186Z,16.47
2017-09-16T02:09:09.450Z,17.30
2017-09-16T02:11:35.845Z,15.07
2017-09-16T02:14:02.211Z,16.83
2017-09-16T02:16:28.462Z,19.07
2017-09-16T02:18:55.537Z,15.23
2017-09-16T02:21:21.771Z,17.90
2017-09-16T02:23:48.101Z,16.33
2017-09-16T02:26:14.650Z,18.27
2017-09-16T02:28:40.885Z,16.77
2017-09-16T02:31:07.167Z,18.00
2017-09-16T02:33:33.451Z,17.43
2017-09-16T02:35:59.710Z,16.87
2017-09-16T02:38:25.948Z,18.00
2017-09-16T02:40:52.208Z,16.07
2017-09-16T02:43:18.443Z,17.10
2017-09-16T02:45:45.417Z,17.63
2017-09-16T02:48:11.674Z,17.37
2017-09-16T02:50:37.914Z,17.37
2017-09-16T02:53:04.162Z,17.00
2017-09-16T02:55:31.234Z,16.40
2017-09-16T02:57:58.367Z,16.60
2017-09-16T03:00:24.595Z,14.90
2017-09-16T03:02:50.845Z,16.23
2017-09-16T03:05:17.074Z,18.00
2017-09-16T03:07:43.296Z,17.40
2017-09-16T03:10:09.570Z,17.40
2017-09-16T03:12:35.799Z,17.50
2017-09-16T03:15:02.763Z,17.30
2017-09-16T03:17:28.993Z,18.27
2017-09-16T03:19:55.223Z,16.90
2017-09-16T03:22:21.464Z,16.40
2017-09-16T03:24:50.298Z,17.30
2017-09-16T03:27:16.717Z,17.87
2017-09-16T03:29:42.958Z,18.40
2017-09-16T03:32:09.280Z,15.97
2017-09-16T03:34:35.515Z,16.90
2017-09-16T03:37:01.817Z,18.00
2017-09-16T03:39:28.068Z,17.70
2017-09-16T03:41:54.289Z,19.20
2017-09-16T03:44:20.526Z,18.90
2017-09-16T03:46:46.797Z,19.60
2017-09-16T03:49:13.778Z,19.97
2017-09-16T03:51:40.011Z,18.40
2017-09-16T03:54:06.279Z,20.17
2017-09-16T03:56:32.531Z,20.40
2017-09-16T03:58:59.602Z,19.90
2017-09-16T04:01:38.046Z,18.90
2017-09-16T04:04:04.271Z,21.47
2017-09-16T04:06:30.506Z,19.03
2017-09-16T04:08:56.742Z,20.57
2017-09-16T04:11:22.961Z,19.93
2017-09-16T04:13:49.193Z,19.80
2017-09-16T04:16:15.435Z,22.07
2017-09-16T04:18:41.651Z,19.93
2017-09-16T04:21:07.904Z,20.70
2017-09-16T04:23:34.162Z,20.17
2017-09-16T04:26:01.466Z,20.47
2017-09-16T04:28:27.947Z,20.43
2017-09-16T04:30:54.206Z,18.83
2017-09-16T04:33:21.171Z,20.07
2017-09-16T04:35:47.405Z,21.87
2017-09-16T04:38:13.651Z,20.70
2017-09-16T04:40:39.891Z,22.13
2017-09-16T04:43:06.133Z,21.57
2017-09-16T04:45:32.390Z,22.67
2017-09-16T04:47:58.606Z,21.63
2017-09-16T04:50:31.183Z,23.23
2017-09-16T04:52:59.154Z,22.80
2017-09-16T04:55:25.786Z,21.60
2017-09-16T04:57:52.157Z,21.50
2017-09-16T05:00:18.914Z,21.47
2017-09-16T05:02:45.340Z,22.07
2017-09-16T05:05:11.760Z,22.93
2017-09-16T05:07:38.403Z,22.90
2017-09-16T05:10:05.431Z,21.17
2017-09-16T05:12:31.879Z,21.20
2017-09-16T05:14:58.131Z,22.67
2017-09-16T05:17:24.454Z,22.47
2017-09-16T05:19:52.683Z,21.27
2017-09-16T05:22:19.099Z,23.00
2017-09-16T05:24:46.508Z,23.43
2017-09-16T05:27:13.369Z,23.00
2017-09-16T05:29:39.804Z,23.57
2017-09-16T05:32:06.234Z,21.33
2017-09-16T05:34:33.578Z,23.70
2017-09-16T05:37:00.742Z,22.60
2017-09-16T05:39:27.005Z,22.90
2017-09-16T05:41:54.103Z,23.23
2017-09-16T05:44:20.378Z,23.80
2017-09-16T05:46:46.626Z,24.40
2017-09-16T05:49:13.618Z,24.87
2017-09-16T05:51:39.859Z,24.50
2017-09-16T05:54:06.122Z,25.10
2017-09-16T05:56:32.355Z,26.10
2017-09-16T05:58:59.354Z,25.80
2017-09-16T06:01:26.406Z,27.13
2017-09-16T06:03:52.842Z,27.37
2017-09-16T06:06:19.471Z,26.20
2017-09-16T06:08:45.915Z,25.00
2017-09-16T06:11:12.162Z,25.57
2017-09-16T06:13:38.411Z,26.53
2017-09-16T06:16:04.766Z,30.03
2017-09-16T06:18:31.814Z,26.90
2017-09-16T06:20:58.798Z,27.67
2017-09-16T06:23:26.661Z,28.57
2017-09-16T06:25:52.914Z,29.67
2017-09-16T06:28:19.434Z,27.50
2017-09-16T06:30:46.626Z,26.30
2017-09-16T06:33:12.857Z,28.80
2017-09-16T06:35:39.139Z,30.17
2017-09-16T06:38:05.391Z,29.70
2017-09-16T06:40:31.628Z,27.03
2017-09-16T06:42:58.692Z,30.50
2017-09-16T06:45:25.024Z,27.70
2017-09-16T06:47:51.254Z,27.60
2017-09-16T06:50:18.723Z,29.40
2017-09-16T06:52:45.059Z,29.33
2017-09-16T06:55:11.310Z,31.73
2017-09-16T06:57:38.330Z,33.33
2017-09-16T07:00:04.626Z,29.50
2017-09-16T07:02:30.849Z,34.93
2017-09-16T07:04:57.114Z,35.40
2017-09-16T07:07:23.342Z,29.73
2017-09-16T07:09:49.658Z,35.20
2017-09-16T07:12:15.906Z,30.63
2017-09-16T07:14:42.170Z,32.37
2017-09-16T07:17:09.023Z,31.40
2017-09-16T07:19:42.145Z,29.43
2017-09-16T07:22:09.098Z,30.40
2017-09-16T07:24:35.319Z,31.27
2017-09-16T07:27:01.660Z,33.47
2017-09-16T07:29:28.116Z,31.90
2017-09-16T07:31:54.530Z,32.63
2017-09-16T07:34:20.771Z,29.27
2017-09-16T07:36:47.734Z,30.80
2017-09-16T07:39:13.947Z,26.20
2017-09-16T07:41:41.230Z,26.83
2017-09-16T07:44:07.568Z,29.40
2017-09-16T07:46:35.174Z,30.50
2017-09-16T07:49:02.222Z,28.73
2017-09-16T07:51:29.194Z,29.20
2017-09-16T07:53:55.420Z,26.77
2017-09-16T07:56:22.406Z,24.57
2017-09-16T07:58:48.661Z,26.23
2017-09-16T08:01:14.905Z,26.77
2017-09-16T08:03:41.919Z,23.57
2017-09-16T08:06:08.242Z,21.70
2017-09-16T08:08:34.558Z,21.07
2017-09-16T08:11:00.884Z,23.97
2017-09-16T08:13:27.180Z,22.83
2017-09-16T08:15:53.419Z,21.67
2017-09-16T08:18:20.413Z,19.87
2017-09-16T08:20:46.638Z,21.90
2017-09-16T08:23:12.925Z,20.37
2017-09-16T08:25:39.245Z,17.90
2017-09-16T08:28:05.530Z,16.70
2017-09-16T08:30:31.938Z,18.10
2017-09-16T08:32:58.463Z,16.87
2017-09-16T08:35:24.725Z,17.93
2017-09-16T08:37:50.998Z,15.70
2017-09-16T08:40:25.199Z,16.63
2017-09-16T08:42:53.760Z,16.30
2017-09-16T08:45:19.991Z,16.67
2017-09-16T08:47:47.059Z,18.53
2017-09-16T08:50:13.325Z,20.97
2017-09-16T08:52:39.575Z,15.90
2017-09-16T08:55:05.823Z,19.23
2017-09-16T08:57:32.797Z,19.27
2017-09-16T08:59:59.037Z,18.07
2017-09-16T09:02:25.330Z,16.80
2017-09-16T09:07:39.071Z,18.43
2017-09-16T09:10:06.054Z,18.30
2017-09-16T09:12:33.282Z,18.07
2017-09-16T09:14:59.582Z,17.90
2017-09-16T09:17:25.835Z,20.47
2017-09-16T09:19:52.066Z,23.17
2017-09-16T09:22:19.066Z,20.77
2017-09-16T09:24:45.493Z,19.83
2017-09-16T09:27:11.890Z,21.83
2017-09-16T09:29:38.887Z,21.47
2017-09-16T09:32:05.203Z,21.10
2017-09-16T09:34:32.927Z,21.30
2017-09-16T09:36:59.210Z,20.37
2017-09-16T09:39:25.465Z,26.27
2017-09-16T09:41:52.084Z,26.10
2017-09-16T09:44:19.299Z,25.10
2017-09-16T09:46:46.298Z,32.07
2017-09-16T09:49:12.782Z,26.17
2017-09-16T09:51:39.914Z,25.80
2017-09-16T09:54:06.137Z,23.90
2017-09-16T09:56:32.498Z,21.17
2017-09-16T09:58:58.842Z,20.67
2017-09-16T10:01:25.831Z,19.83
2017-09-16T10:03:52.368Z,17.20
2017-09-16T10:06:18.625Z,19.37
2017-09-16T10:08:44.861Z,17.47
2017-09-16T10:11:11.277Z,17.20
2017-09-16T10:13:37.622Z,17.53
2017-09-16T10:16:03.845Z,17.37
2017-09-16T10:18:30.695Z,15.73
2017-09-16T10:20:59.197Z,14.97
2017-09-16T10:23:25.476Z,14.03
2017-09-16T10:25:51.939Z,15.50
2017-09-16T10:28:19.087Z,18.40
2017-09-16T10:30:46.303Z,17.17
2017-09-16T10:33:13.551Z,17.40
2017-09-16T10:35:39.982Z,16.30
2017-09-16T10:38:06.291Z,18.90
2017-09-16T10:40:33.478Z,21.70
2017-09-16T10:45:33.482Z,16.13
2017-09-16T10:47:59.730Z,15.80
2017-09-16T10:50:26.723Z,14.50
2017-09-16T10:52:53.058Z,13.30
2017-09-16T10:55:19.343Z,16.07
2017-09-16T10:57:46.389Z,15.40
2017-09-16T11:00:15.140Z,15.60
2017-09-16T11:02:43.354Z,17.30
2017-09-16T11:05:10.915Z,14.90
2017-09-16T11:07:38.321Z,15.60
2017-09-16T11:10:04.558Z,14.77
2017-09-16T11:12:31.550Z,14.70
2017-09-16T11:14:58.958Z,14.50
2017-09-16T11:17:25.193Z,13.83
2017-09-16T11:19:51.465Z,16.10
2017-09-16T11:22:18.012Z,15.63
2017-09-16T11:24:46.758Z,17.70
2017-09-16T11:27:13.035Z,18.53
2017-09-16T11:29:47.830Z,18.07
2017-09-16T11:32:14.269Z,17.57
2017-09-16T11:34:40.606Z,16.10
2017-09-16T11:37:10.615Z,13.83
2017-09-16T11:39:39.882Z,14.90
2017-09-16T11:42:08.512Z,15.37
2017-09-16T11:44:39.330Z,14.10
2017-09-16T11:47:07.762Z,15.30
2017-09-16T11:49:35.791Z,14.50
2017-09-16T11:52:05.071Z,14.97
2017-09-16T11:54:31.420Z,14.60
2017-09-16T11:56:57.662Z,14.43
2017-09-16T11:59:25.285Z,13.20
2017-09-16T12:01:54.977Z,12.70
2017-09-16T12:04:23.718Z,12.60
2017-09-16T12:06:49.966Z,13.07
2017-09-16T12:09:17.365Z,11.60
2017-09-16T12:11:52.917Z,11.60
2017-09-16T12:14:21.639Z,11.43
2017-09-16T12:16:51.621Z,14.87
2017-09-16T12:19:17.852Z,14.80
2017-09-16T12:21:44.127Z,15.03
2017-09-16T12:24:11.131Z,14.30
2017-09-16T12:26:38.175Z,15.80
2017-09-16T12:29:06.031Z,16.90
2017-09-16T12:31:33.551Z,15.90
2017-09-16T12:34:01.995Z,17.10
2017-09-16T12:36:28.333Z,17.90
2017-09-16T12:38:54.734Z,19.50
2017-09-16T12:41:23.042Z,19.10
2017-09-16T12:43:50.809Z,19.20
2017-09-16T12:46:17.520Z,16.90
2017-09-16T12:48:43.767Z,15.50
2017-09-16T12:51:12.932Z,15.53
2017-09-16T12:53:39.166Z,17.70
2017-09-16T12:56:05.498Z,14.93
2017-09-16T12:58:32.560Z,17.17
2017-09-16T13:00:58.805Z,16.40
2017-09-16T13:03:25.050Z,29.80
2017-09-16T13:05:52.661Z,29.77
2017-09-16T13:08:18.903Z,19.53
2017-09-16T13:13:25.790Z,15.00
2017-09-16T13:16:00.123Z,15.80
2017-09-16T13:18:28.325Z,17.33
2017-09-16T13:20:54.594Z,17.20
2017-09-16T13:23:28.834Z,18.13
2017-09-16T13:25:57.955Z,18.43
2017-09-16T13:28:24.210Z,19.77
2017-09-16T13:30:52.066Z,17.83
2017-09-16T13:33:18.318Z,19.20
2017-09-16T13:35:53.346Z,20.50
2017-09-16T13:38:21.794Z,19.13
2017-09-16T13:40:48.950Z,20.10
2017-09-16T13:43:15.202Z,19.63
2017-09-16T13:45:46.682Z,22.60
2017-09-16T13:48:15.766Z,19.57
2017-09-16T13:50:43.155Z,21.60
2017-09-16T13:53:11.829Z,21.00
2017-09-16T13:55:38.122Z,20.40
2017-09-16T13:58:04.386Z,21.30
2017-09-16T14:00:31.388Z,19.83
2017-09-16T14:02:58.513Z,18.67
2017-09-16T14:05:25.490Z,20.67
2017-09-16T14:07:52.654Z,19.73
2017-09-16T14:10:18.929Z,19.47
2017-09-16T14:12:45.158Z,17.13
2017-09-16T14:15:11.418Z,19.20
2017-09-16T14:17:38.562Z,19.70
2017-09-16T14:20:06.555Z,19.13
2017-09-16T14:22:32.828Z,18.27
2017-09-16T14:24:59.094Z,15.70
2017-09-16T14:27:26.077Z,16.87
2017-09-16T14:29:52.353Z,17.70
2017-09-16T14:32:18.835Z,16.67
2017-09-16T14:34:45.078Z,17.97
2017-09-16T14:37:11.306Z,15.97
2017-09-16T14:39:37.676Z,14.00
2017-09-16T14:42:04.131Z,18.00
2017-09-16T14:44:31.122Z,16.90
2017-09-16T14:46:57.655Z,16.63
2017-09-16T14:49:23.935Z,15.00
2017-09-16T14:51:50.228Z,16.00
2017-09-16T14:54:16.457Z,13.00
2017-09-16T14:56:42.682Z,13.03
2017-09-16T14:59:09.638Z,13.93
2017-09-16T15:01:35.960Z,13.23
2017-09-16T15:04:02.198Z,12.97
2017-09-16T15:06:28.462Z,12.13
2017-09-16T15:08:54.785Z,13.43
2017-09-16T15:11:21.060Z,13.37
2017-09-16T15:13:48.043Z,11.40
2017-09-16T15:16:14.341Z,12.43
2017-09-16T15:18:41.338Z,13.97
2017-09-16T15:21:07.726Z,12.50
2017-09-16T15:23:34.002Z,12.47
2017-09-16T15:26:00.273Z,11.57
2017-09-16T15:28:26.507Z,10.93
2017-09-16T15:30:52.758Z,11.83
2017-09-16T15:33:19.742Z,13.00
2017-09-16T15:35:46.854Z,10.80
2017-09-16T15:38:14.006Z,11.70
2017-09-16T15:40:41.275Z,12.90
2017-09-16T15:43:07.687Z,14.07
2017-09-16T15:45:34.003Z,11.80
2017-09-16T15:48:00.346Z,12.30
2017-09-16T15:50:26.574Z,12.67
2017-09-16T15:52:52.834Z,12.83
2017-09-16T15:55:19.801Z,15.63
2017-09-16T15:57:46.052Z,16.27
2017-09-16T16:00:12.305Z,16.00
2017-09-16T16:02:38.538Z,15.83
2017-09-16T16:05:05.396Z,15.97
2017-09-16T16:07:31.770Z,15.00
2017-09-16T16:09:58.734Z,14.43
2017-09-16T16:12:24.962Z,13.63
2017-09-16T16:14:51.209Z,15.23
2017-09-16T16:17:17.422Z,13.40
2017-09-16T16:19:43.647Z,14.23
2017-09-16T16:22:09.899Z,14.80
2017-09-16T16:24:36.139Z,14.43
2017-09-16T16:27:02.389Z,15.00
2017-09-16T16:29:28.733Z,14.60
2017-09-16T16:31:54.986Z,14.60
2017-09-16T16:34:21.943Z,14.13
2017-09-16T16:36:48.922Z,15.80
2017-09-16T16:39:16.815Z,15.50
2017-09-16T16:41:43.455Z,13.90
2017-09-16T16:44:09.960Z,13.50
2017-09-16T16:46:36.170Z,15.23
2017-09-16T16:49:03.134Z,14.80
2017-09-16T16:51:29.378Z,11.40
2017-09-16T16:53:57.315Z,13.07
2017-09-16T16:56:24.508Z,11.27
2017-09-16T16:58:50.932Z,13.07
2017-09-16T17:01:17.150Z,13.90
2017-09-16T17:03:43.386Z,12.50
2017-09-16T17:06:09.635Z,11.00
2017-09-16T17:08:36.100Z,10.17
2017-09-16T17:11:02.382Z,11.40
2017-09-16T17:13:28.864Z,11.87
2017-09-16T17:15:56.013Z,12.00
2017-09-16T17:18:25.821Z,13.80
2017-09-16T17:20:53.679Z,12.37
2017-09-16T17:23:20.428Z,12.93
2017-09-16T17:25:46.790Z,11.30
2017-09-16T17:28:13.247Z,11.07
2017-09-16T17:30:40.438Z,11.13
2017-09-16T17:33:07.655Z,10.10
2017-09-16T17:35:35.742Z,10.87
2017-09-16T17:38:02.250Z,10.60
2017-09-16T17:40:28.517Z,10.80
2017-09-16T17:42:54.922Z,9.73
2017-09-16T17:45:21.536Z,11.67
2017-09-16T17:47:47.958Z,11.40
2017-09-16T17:50:14.327Z,11.00
2017-09-16T17:52:40.707Z,11.73
2017-09-16T17:55:08.073Z,10.80
2017-09-16T17:57:35.235Z,11.00
2017-09-16T18:00:01.648Z,11.70
2017-09-16T18:02:28.125Z,11.73
2017-09-16T18:04:54.542Z,12.33
2017-09-16T18:07:20.786Z,13.33
2017-09-16T18:09:55.993Z,13.63
2017-09-16T18:12:23.268Z,14.50
2017-09-16T18:14:51.346Z,13.10
2017-09-16T18:17:20.979Z,14.83
2017-09-16T18:19:50.986Z,16.70
2017-09-16T18:22:20.247Z,16.07
2017-09-16T18:24:46.494Z,16.20
2017-09-16T18:27:13.239Z,17.73
2017-09-16T18:29:43.107Z,15.77
2017-09-16T18:32:10.120Z,16.27
2017-09-16T18:34:39.395Z,19.47
2017-09-16T18:37:07.915Z,19.03
2017-09-16T18:39:35.398Z,18.10
2017-09-16T18:42:04.573Z,17.67
2017-09-16T18:44:32.399Z,20.73
2017-09-16T18:47:00.050Z,20.40
2017-09-16T18:49:29.414Z,21.40
2017-09-16T18:51:59.718Z,21.47
2017-09-16T18:54:26.568Z,20.40
2017-09-16T18:56:52.946Z,20.23
2017-09-16T18:59:19.923Z,20.60
2017-09-16T19:01:46.835Z,18.97
2017-09-16T19:04:13.110Z,18.80
2017-09-16T19:06:39.342Z,18.47
2017-09-16T19:09:05.813Z,17.40
2017-09-16T19:11:32.191Z,18.87
2017-09-16T19:13:58.565Z,20.10
2017-09-16T19:16:24.846Z,19.10
2017-09-16T19:18:51.235Z,17.50
2017-09-16T19:21:17.698Z,20.60
2017-09-16T19:23:47.643Z,21.53
2017-09-16T19:26:16.580Z,21.43
2017-09-16T19:28:42.938Z,20.90
2017-09-16T19:31:09.501Z,21.00
2017-09-16T19:33:37.271Z,21.40
2017-09-16T19:36:07.914Z,20.97
2017-09-16T19:38:35.970Z,20.83
2017-09-16T19:41:04.087Z,22.63
2017-09-16T19:43:30.313Z,22.90
2017-09-16T19:48:39.086Z,20.63
2017-09-16T19:51:06.283Z,23.70
2017-09-16T19:53:35.244Z,21.80
2017-09-16T19:56:06.306Z,21.90
2017-09-16T19:58:32.896Z,23.50
2017-09-16T20:01:00.854Z,25.97
2017-09-16T20:03:27.079Z,24.10
2017-09-16T20:05:53.335Z,21.37
2017-09-16T20:08:19.546Z,24.67
2017-09-16T20:10:45.775Z,27.13
2017-09-16T20:13:12.028Z,26.20
2017-09-16T20:15:38.296Z,24.50
2017-09-16T20:18:04.545Z,23.47
2017-09-16T20:20:32.143Z,22.50
2017-09-16T20:22:58.348Z,22.43
2017-09-16T20:25:24.642Z,24.40
2017-09-16T20:27:50.908Z,22.83
2017-09-16T20:30:17.875Z,22.67
2017-09-16T20:32:44.107Z,25.90
2017-09-16T20:35:10.378Z,25.07
2017-09-16T20:37:36.629Z,27.37
2017-09-16T20:40:02.869Z,25.17
2017-09-16T20:42:29.882Z,28.43
2017-09-16T20:44:56.135Z,30.70
2017-09-16T20:47:22.466Z,27.90
2017-09-16T20:49:49.448Z,28.00
2017-09-16T20:52:15.821Z,25.43
2017-09-16T20:54:42.094Z,27.13
2017-09-16T20:57:08.394Z,27.47
2017-09-16T20:59:34.619Z,28.30
2017-09-16T21:02:00.867Z,28.90
2017-09-16T21:04:27.119Z,34.83
2017-09-16T21:06:53.362Z,67.87
2017-09-16T21:09:20.329Z,106.17
2017-09-16T21:11:47.455Z,86.13
2017-09-16T21:14:13.730Z,55.70
2017-09-16T21:16:39.970Z,48.50
2017-09-16T21:19:19.840Z,60.03
2017-09-16T21:21:46.083Z,95.83
2017-09-16T21:24:16.158Z,88.30
2017-09-16T21:26:42.410Z,45.33
2017-09-16T21:29:09.557Z,31.83
2017-09-16T21:31:36.765Z,28.60
2017-09-16T21:34:03.946Z,27.40
2017-09-16T21:36:31.370Z,26.33
2017-09-16T21:39:04.675Z,33.00
2017-09-16T21:41:30.902Z,35.67
2017-09-16T21:43:58.088Z,37.60
2017-09-16T21:46:27.861Z,37.97
2017-09-16T21:49:05.462Z,31.20
2017-09-16T21:51:32.662Z,28.87
2017-09-16T21:54:00.724Z,25.63
2017-09-16T21:56:26.948Z,27.63
2017-09-16T21:58:54.062Z,26.17
2017-09-16T22:01:20.290Z,30.47
2017-09-16T22:03:46.513Z,24.63
2017-09-16T22:06:12.954Z,25.27
2017-09-16T22:08:39.185Z,25.90
2017-09-16T22:11:05.416Z,27.20
2017-09-16T22:13:31.731Z,27.43
2017-09-16T22:15:58.063Z,26.50
2017-09-16T22:18:24.380Z,25.07
2017-09-16T22:20:51.438Z,27.17
2017-09-16T22:23:20.562Z,26.83
2017-09-16T22:25:50.099Z,24.80
2017-09-16T22:28:18.090Z,23.60
2017-09-16T22:30:45.827Z,24.20
2017-09-16T22:33:12.049Z,22.40
2017-09-16T22:35:39.337Z,23.10
2017-09-16T22:38:05.557Z,24.47
2017-09-16T22:40:32.527Z,21.83
2017-09-16T22:42:58.822Z,21.93
2017-09-16T22:45:25.077Z,21.13
2017-09-16T22:47:52.032Z,21.43
2017-09-16T22:50:18.379Z,22.70
2017-09-16T22:52:45.518Z,23.13
2017-09-16T22:55:11.747Z,22.97
2017-09-16T22:57:38.047Z,20.93
2017-09-16T23:00:04.349Z,34.20
2017-09-16T23:02:30.621Z,86.10
2017-09-16T23:04:57.646Z,71.43
2017-09-16T23:07:23.923Z,41.53
2017-09-16T23:09:53.358Z,26.37
2017-09-16T23:12:22.574Z,22.50
2017-09-16T23:14:50.582Z,21.80
2017-09-16T23:17:16.800Z,21.57
2017-09-16T23:19:43.053Z,20.67
2017-09-16T23:22:22.506Z,19.70
2017-09-16T23:24:50.903Z,17.87
2017-09-16T23:27:17.129Z,19.00
2017-09-16T23:29:46.642Z,17.70
2017-09-16T23:32:12.890Z,17.47
2017-09-16T23:34:40.561Z,17.23
2017-09-16T23:37:09.703Z,16.73
2017-09-16T23:39:36.706Z,17.80
2017-09-16T23:42:03.426Z,16.50
2017-09-16T23:44:29.669Z,17.00
2017-09-16T23:46:55.950Z,14.10
2017-09-16T23:49:22.926Z,15.40
2017-09-16T23:51:50.074Z,16.33
2017-09-16T23:54:18.735Z,22.67
2017-09-16T23:56:44.963Z,26.50
2017-09-16T23:59:12.230Z,24.47
